sensor_id;sensor_type;location;lat;lon;timestamp;temperature;humidity
2611;DHT22;5612;51.134;17.058;2022-12-29T00:00:17;7.30;99.90
2611;DHT22;5612;51.134;17.058;2022-12-29T00:02:46;7.20;1.00
2611;DHT22;5612;51.134;17.058;2022-12-29T00:05:15;7.10;1.00
2611;DHT22;5612;51.134;17.058;2022-12-29T00:07:44;7.10;1.00
2611;DHT22;5612;51.134;17.058;2022-12-29T00:10:15;7.10;1.00
2611;DHT22;5612;51.134;17.058;2022-12-29T00:12:44;7.10;99.90
2611;DHT22;5612;51.134;17.058;2022-12-29T00:15:29;7.20;99.90
2611;DHT22;5612;51.134;17.058;2022-12-29T00:18:08;7.30;99.90
2611;DHT22;5612;51.134;17.058;2022-12-29T00:20:37;7.30;99.90
2611;DHT22;5612;51.134;17.058;2022-12-29T00:23:24;7.30;99.90
2611;DHT22;5612;51.134;17.058;2022-12-29T00:26:15;7.40;99.90
2611;DHT22;5612;51.134;17.058;2022-12-29T00:29:02;7.40;99.90
2611;DHT22;5612;51.134;17.058;2022-12-29T00:31:48;7.50;99.90
2611;DHT22;5612;51.134;17.058;2022-12-29T00:34:35;7.50;99.90
2611;DHT22;5612;51.134;17.058;2022-12-29T00:37:21;7.50;99.90
2611;DHT22;5612;51.134;17.058;2022-12-29T00:40:12;7.50;99.90
2611;DHT22;5612;51.134;17.058;2022-12-29T00:43:05;7.40;99.90
2611;DHT22;5612;51.134;17.058;2022-12-29T00:45:51;7.40;99.90
2611;DHT22;5612;51.134;17.058;2022-12-29T00:48:20;7.40;99.90
2611;DHT22;5612;51.134;17.058;2022-12-29T00:51:03;7.40;99.90
2611;DHT22;5612;51.134;17.058;2022-12-29T00:53:33;7.40;99.90
2611;DHT22;5612;51.134;17.058;2022-12-29T00:56:02;7.40;99.90
2611;DHT22;5612;51.134;17.058;2022-12-29T00:58:32;7.30;99.90
2611;DHT22;5612;51.134;17.058;2022-12-29T01:01:02;7.20;99.90
2611;DHT22;5612;51.134;17.058;2022-12-29T01:03:32;7.20;99.90
2611;DHT22;5612;51.134;17.058;2022-12-29T01:06:02;7.20;99.90
2611;DHT22;5612;51.134;17.058;2022-12-29T01:08:31;7.30;99.90
2611;DHT22;5612;51.134;17.058;2022-12-29T01:11:01;7.30;99.90
2611;DHT22;5612;51.134;17.058;2022-12-29T01:13:29;7.20;99.90
2611;DHT22;5612;51.134;17.058;2022-12-29T01:15:59;7.30;99.90
2611;DHT22;5612;51.134;17.058;2022-12-29T01:18:28;7.30;99.90
2611;DHT22;5612;51.134;17.058;2022-12-29T01:21:01;7.30;99.90
2611;DHT22;5612;51.134;17.058;2022-12-29T01:23:30;7.40;99.90
2611;DHT22;5612;51.134;17.058;2022-12-29T01:26:09;7.40;99.90
2611;DHT22;5612;51.134;17.058;2022-12-29T01:28:38;7.40;99.90
2611;DHT22;5612;51.134;17.058;2022-12-29T01:31:09;7.40;99.90
2611;DHT22;5612;51.134;17.058;2022-12-29T01:33:39;7.30;99.90
2611;DHT22;5612;51.134;17.058;2022-12-29T01:36:09;7.30;99.90
2611;DHT22;5612;51.134;17.058;2022-12-29T01:38:39;7.30;99.90
2611;DHT22;5612;51.134;17.058;2022-12-29T01:41:10;7.40;99.90
2611;DHT22;5612;51.134;17.058;2022-12-29T01:43:42;7.30;99.90
2611;DHT22;5612;51.134;17.058;2022-12-29T01:46:22;7.30;99.90
2611;DHT22;5612;51.134;17.058;2022-12-29T01:48:57;7.30;99.90
2611;DHT22;5612;51.134;17.058;2022-12-29T01:51:30;7.40;99.90
2611;DHT22;5612;51.134;17.058;2022-12-29T01:54:01;7.40;99.90
2611;DHT22;5612;51.134;17.058;2022-12-29T01:56:31;7.50;99.90
2611;DHT22;5612;51.134;17.058;2022-12-29T01:59:05;7.60;99.90
2611;DHT22;5612;51.134;17.058;2022-12-29T02:01:36;7.50;99.90
2611;DHT22;5612;51.134;17.058;2022-12-29T02:04:05;7.60;99.90
2611;DHT22;5612;51.134;17.058;2022-12-29T02:06:38;7.70;99.90
2611;DHT22;5612;51.134;17.058;2022-12-29T02:09:08;7.80;99.90
2611;DHT22;5612;51.134;17.058;2022-12-29T02:11:38;7.80;99.90
2611;DHT22;5612;51.134;17.058;2022-12-29T02:14:09;7.80;99.90
2611;DHT22;5612;51.134;17.058;2022-12-29T02:16:55;7.80;99.90
2611;DHT22;5612;51.134;17.058;2022-12-29T02:19:50;7.80;99.90
2611;DHT22;5612;51.134;17.058;2022-12-29T02:22:27;7.80;99.90
2611;DHT22;5612;51.134;17.058;2022-12-29T02:25:22;7.80;99.90
2611;DHT22;5612;51.134;17.058;2022-12-29T02:28:12;7.70;99.90
2611;DHT22;5612;51.134;17.058;2022-12-29T02:30:53;7.70;99.90
2611;DHT22;5612;51.134;17.058;2022-12-29T02:33:34;7.70;99.90
2611;DHT22;5612;51.134;17.058;2022-12-29T02:36:14;7.80;99.90
2611;DHT22;5612;51.134;17.058;2022-12-29T02:38:57;7.80;99.90
2611;DHT22;5612;51.134;17.058;2022-12-29T02:41:32;7.70;99.90
2611;DHT22;5612;51.134;17.058;2022-12-29T02:44:07;7.60;99.90
2611;DHT22;5612;51.134;17.058;2022-12-29T02:46:45;7.40;99.90
2611;DHT22;5612;51.134;17.058;2022-12-29T02:49:19;7.40;99.90
2611;DHT22;5612;51.134;17.058;2022-12-29T02:51:52;7.30;99.90
2611;DHT22;5612;51.134;17.058;2022-12-29T02:54:24;7.30;99.90
2611;DHT22;5612;51.134;17.058;2022-12-29T02:57:12;7.20;99.90
2611;DHT22;5612;51.134;17.058;2022-12-29T02:59:45;7.20;99.90
2611;DHT22;5612;51.134;17.058;2022-12-29T03:02:27;7.20;99.90
2611;DHT22;5612;51.134;17.058;2022-12-29T03:05:23;7.20;99.90
2611;DHT22;5612;51.134;17.058;2022-12-29T03:08:00;7.20;99.90
2611;DHT22;5612;51.134;17.058;2022-12-29T03:10:40;7.20;99.90
2611;DHT22;5612;51.134;17.058;2022-12-29T03:13:20;7.30;99.90
2611;DHT22;5612;51.134;17.058;2022-12-29T03:16:14;7.30;99.90
2611;DHT22;5612;51.134;17.058;2022-12-29T03:18:54;7.30;99.90
2611;DHT22;5612;51.134;17.058;2022-12-29T03:21:30;7.30;99.90
2611;DHT22;5612;51.134;17.058;2022-12-29T03:24:14;7.40;99.90
2611;DHT22;5612;51.134;17.058;2022-12-29T03:26:45;7.40;99.90
2611;DHT22;5612;51.134;17.058;2022-12-29T03:29:16;7.30;99.90
2611;DHT22;5612;51.134;17.058;2022-12-29T03:31:48;7.30;99.90
2611;DHT22;5612;51.134;17.058;2022-12-29T03:34:20;7.30;99.90
2611;DHT22;5612;51.134;17.058;2022-12-29T03:36:53;7.30;99.90
2611;DHT22;5612;51.134;17.058;2022-12-29T03:39:24;7.30;99.90
2611;DHT22;5612;51.134;17.058;2022-12-29T03:41:57;7.20;99.90
2611;DHT22;5612;51.134;17.058;2022-12-29T03:44:32;7.20;99.90
2611;DHT22;5612;51.134;17.058;2022-12-29T03:47:01;7.30;99.90
2611;DHT22;5612;51.134;17.058;2022-12-29T03:49:32;7.20;99.90
2611;DHT22;5612;51.134;17.058;2022-12-29T03:52:01;7.20;99.90
2611;DHT22;5612;51.134;17.058;2022-12-29T03:54:31;7.10;99.90
2611;DHT22;5612;51.134;17.058;2022-12-29T03:57:00;7.10;99.90
2611;DHT22;5612;51.134;17.058;2022-12-29T03:59:29;7.10;99.90
2611;DHT22;5612;51.134;17.058;2022-12-29T04:01:58;7.20;99.90
2611;DHT22;5612;51.134;17.058;2022-12-29T04:04:27;7.30;99.90
2611;DHT22;5612;51.134;17.058;2022-12-29T04:06:57;7.20;99.90
2611;DHT22;5612;51.134;17.058;2022-12-29T04:09:26;7.30;99.90
2611;DHT22;5612;51.134;17.058;2022-12-29T04:11:54;7.20;99.90
2611;DHT22;5612;51.134;17.058;2022-12-29T04:14:23;7.30;99.90
2611;DHT22;5612;51.134;17.058;2022-12-29T04:16:52;7.40;99.90
2611;DHT22;5612;51.134;17.058;2022-12-29T04:19:21;7.40;99.90
2611;DHT22;5612;51.134;17.058;2022-12-29T04:21:49;7.40;99.90
2611;DHT22;5612;51.134;17.058;2022-12-29T04:24:20;7.50;99.90
2611;DHT22;5612;51.134;17.058;2022-12-29T04:26:49;7.40;99.90
2611;DHT22;5612;51.134;17.058;2022-12-29T04:29:17;7.40;99.90
2611;DHT22;5612;51.134;17.058;2022-12-29T04:31:46;7.40;99.90
2611;DHT22;5612;51.134;17.058;2022-12-29T04:34:15;7.50;99.90
2611;DHT22;5612;51.134;17.058;2022-12-29T04:36:44;7.50;99.90
2611;DHT22;5612;51.134;17.058;2022-12-29T04:39:13;7.50;99.90
2611;DHT22;5612;51.134;17.058;2022-12-29T04:41:43;7.50;99.90
2611;DHT22;5612;51.134;17.058;2022-12-29T04:44:12;7.60;99.90
2611;DHT22;5612;51.134;17.058;2022-12-29T04:46:40;7.60;99.90
2611;DHT22;5612;51.134;17.058;2022-12-29T04:49:09;7.60;99.90
2611;DHT22;5612;51.134;17.058;2022-12-29T04:51:38;7.70;99.90
2611;DHT22;5612;51.134;17.058;2022-12-29T04:54:07;7.70;99.90
2611;DHT22;5612;51.134;17.058;2022-12-29T04:56:35;7.80;99.90
2611;DHT22;5612;51.134;17.058;2022-12-29T04:59:05;7.80;99.90
2611;DHT22;5612;51.134;17.058;2022-12-29T05:01:34;7.80;99.90
2611;DHT22;5612;51.134;17.058;2022-12-29T05:04:04;7.80;99.90
2611;DHT22;5612;51.134;17.058;2022-12-29T05:06:32;7.80;99.90
2611;DHT22;5612;51.134;17.058;2022-12-29T05:09:01;7.80;99.90
2611;DHT22;5612;51.134;17.058;2022-12-29T05:11:30;7.80;99.90
2611;DHT22;5612;51.134;17.058;2022-12-29T05:13:59;7.90;99.90
2611;DHT22;5612;51.134;17.058;2022-12-29T05:16:29;7.80;99.90
2611;DHT22;5612;51.134;17.058;2022-12-29T05:18:58;7.90;99.90
2611;DHT22;5612;51.134;17.058;2022-12-29T05:21:27;7.90;94.60
2611;DHT22;5612;51.134;17.058;2022-12-29T05:23:56;7.80;99.90
2611;DHT22;5612;51.134;17.058;2022-12-29T05:26:25;7.80;99.90
2611;DHT22;5612;51.134;17.058;2022-12-29T05:28:54;7.90;87.00
2611;DHT22;5612;51.134;17.058;2022-12-29T05:31:22;7.80;96.10
2611;DHT22;5612;51.134;17.058;2022-12-29T05:33:53;7.80;90.70
2611;DHT22;5612;51.134;17.058;2022-12-29T05:36:22;7.80;97.60
2611;DHT22;5612;51.134;17.058;2022-12-29T05:38:51;7.70;96.60
2611;DHT22;5612;51.134;17.058;2022-12-29T05:41:21;7.80;96.30
2611;DHT22;5612;51.134;17.058;2022-12-29T05:43:50;7.70;99.50
2611;DHT22;5612;51.134;17.058;2022-12-29T05:46:18;7.70;95.40
2611;DHT22;5612;51.134;17.058;2022-12-29T05:48:47;7.60;99.90
2611;DHT22;5612;51.134;17.058;2022-12-29T05:51:17;7.60;99.90
2611;DHT22;5612;51.134;17.058;2022-12-29T05:53:46;7.60;99.90
2611;DHT22;5612;51.134;17.058;2022-12-29T05:56:15;7.50;99.90
2611;DHT22;5612;51.134;17.058;2022-12-29T05:58:44;7.50;99.90
2611;DHT22;5612;51.134;17.058;2022-12-29T06:01:13;7.60;90.20
2611;DHT22;5612;51.134;17.058;2022-12-29T06:03:43;7.70;96.10
2611;DHT22;5612;51.134;17.058;2022-12-29T06:06:14;7.80;60.20
2611;DHT22;5612;51.134;17.058;2022-12-29T06:08:45;7.80;56.50
2611;DHT22;5612;51.134;17.058;2022-12-29T06:11:13;7.90;56.40
2611;DHT22;5612;51.134;17.058;2022-12-29T06:13:43;8.00;37.40
2611;DHT22;5612;51.134;17.058;2022-12-29T06:16:11;8.00;38.60
2611;DHT22;5612;51.134;17.058;2022-12-29T06:18:40;8.00;34.50
2611;DHT22;5612;51.134;17.058;2022-12-29T06:21:09;7.90;31.60
2611;DHT22;5612;51.134;17.058;2022-12-29T06:23:38;8.00;27.80
2611;DHT22;5612;51.134;17.058;2022-12-29T06:26:08;8.00;35.80
2611;DHT22;5612;51.134;17.058;2022-12-29T06:28:37;8.10;29.60
2611;DHT22;5612;51.134;17.058;2022-12-29T06:31:09;8.10;22.10
2611;DHT22;5612;51.134;17.058;2022-12-29T06:33:38;8.10;22.40
2611;DHT22;5612;51.134;17.058;2022-12-29T06:36:07;8.10;23.90
2611;DHT22;5612;51.134;17.058;2022-12-29T06:38:36;8.10;19.90
2611;DHT22;5612;51.134;17.058;2022-12-29T06:41:05;8.10;27.60
2611;DHT22;5612;51.134;17.058;2022-12-29T06:43:35;8.10;23.40
2611;DHT22;5612;51.134;17.058;2022-12-29T06:46:05;8.10;23.80
2611;DHT22;5612;51.134;17.058;2022-12-29T06:48:34;8.20;20.80
2611;DHT22;5612;51.134;17.058;2022-12-29T06:51:03;8.20;18.70
2611;DHT22;5612;51.134;17.058;2022-12-29T06:53:34;8.20;23.80
2611;DHT22;5612;51.134;17.058;2022-12-29T06:56:03;8.30;14.70
2611;DHT22;5612;51.134;17.058;2022-12-29T06:58:32;8.30;15.30
2611;DHT22;5612;51.134;17.058;2022-12-29T07:01:03;8.30;14.70
2611;DHT22;5612;51.134;17.058;2022-12-29T07:03:32;8.40;19.30
2611;DHT22;5612;51.134;17.058;2022-12-29T07:06:01;8.30;19.90
2611;DHT22;5612;51.134;17.058;2022-12-29T07:08:30;8.40;16.00
2611;DHT22;5612;51.134;17.058;2022-12-29T07:10:58;8.50;19.50
2611;DHT22;5612;51.134;17.058;2022-12-29T07:13:27;8.50;15.90
2611;DHT22;5612;51.134;17.058;2022-12-29T07:15:57;8.50;23.10
2611;DHT22;5612;51.134;17.058;2022-12-29T07:18:27;8.50;20.70
2611;DHT22;5612;51.134;17.058;2022-12-29T07:20:56;8.60;22.70
2611;DHT22;5612;51.134;17.058;2022-12-29T07:23:25;8.50;20.20
2611;DHT22;5612;51.134;17.058;2022-12-29T07:25:59;8.50;20.00
2611;DHT22;5612;51.134;17.058;2022-12-29T07:28:28;8.50;31.00
2611;DHT22;5612;51.134;17.058;2022-12-29T07:30:57;8.60;27.10
2611;DHT22;5612;51.134;17.058;2022-12-29T07:33:28;8.60;28.80
2611;DHT22;5612;51.134;17.058;2022-12-29T07:35:58;8.60;31.90
2611;DHT22;5612;51.134;17.058;2022-12-29T07:38:27;8.70;28.30
2611;DHT22;5612;51.134;17.058;2022-12-29T07:40:57;8.70;32.20
2611;DHT22;5612;51.134;17.058;2022-12-29T07:43:26;8.60;29.20
2611;DHT22;5612;51.134;17.058;2022-12-29T07:45:55;8.60;29.40
2611;DHT22;5612;51.134;17.058;2022-12-29T07:48:24;8.60;36.50
2611;DHT22;5612;51.134;17.058;2022-12-29T07:50:54;8.60;43.10
2611;DHT22;5612;51.134;17.058;2022-12-29T07:53:23;8.50;41.00
2611;DHT22;5612;51.134;17.058;2022-12-29T07:55:52;8.40;49.30
2611;DHT22;5612;51.134;17.058;2022-12-29T07:58:21;8.40;57.70
2611;DHT22;5612;51.134;17.058;2022-12-29T08:00:53;8.30;73.00
2611;DHT22;5612;51.134;17.058;2022-12-29T08:03:22;8.30;83.10
2611;DHT22;5612;51.134;17.058;2022-12-29T08:05:53;8.40;89.20
2611;DHT22;5612;51.134;17.058;2022-12-29T08:08:23;8.50;81.60
2611;DHT22;5612;51.134;17.058;2022-12-29T08:10:51;8.50;76.80
2611;DHT22;5612;51.134;17.058;2022-12-29T08:13:20;8.60;75.90
2611;DHT22;5612;51.134;17.058;2022-12-29T08:15:49;8.60;74.10
2611;DHT22;5612;51.134;17.058;2022-12-29T08:18:18;8.70;70.20
2611;DHT22;5612;51.134;17.058;2022-12-29T08:20:47;8.70;74.00
2611;DHT22;5612;51.134;17.058;2022-12-29T08:23:23;8.80;70.90
2611;DHT22;5612;51.134;17.058;2022-12-29T08:25:57;8.90;65.90
2611;DHT22;5612;51.134;17.058;2022-12-29T08:28:26;9.00;52.90
2611;DHT22;5612;51.134;17.058;2022-12-29T08:30:58;9.00;56.50
2611;DHT22;5612;51.134;17.058;2022-12-29T08:33:27;9.10;47.70
2611;DHT22;5612;51.134;17.058;2022-12-29T08:35:59;9.30;41.80
2611;DHT22;5612;51.134;17.058;2022-12-29T08:38:30;9.30;32.90
2611;DHT22;5612;51.134;17.058;2022-12-29T08:41:00;9.50;25.40
2611;DHT22;5612;51.134;17.058;2022-12-29T08:43:29;9.50;12.50
2611;DHT22;5612;51.134;17.058;2022-12-29T08:45:58;9.50;12.80
2611;DHT22;5612;51.134;17.058;2022-12-29T08:48:27;9.40;8.30
2611;DHT22;5612;51.134;17.058;2022-12-29T08:50:56;9.40;11.20
2611;DHT22;5612;51.134;17.058;2022-12-29T08:53:25;9.50;1.80
2611;DHT22;5612;51.134;17.058;2022-12-29T08:55:59;9.60;1.00
2611;DHT22;5612;51.134;17.058;2022-12-29T08:58:32;9.50;1.00
2611;DHT22;5612;51.134;17.058;2022-12-29T09:01:01;9.50;1.00
2611;DHT22;5612;51.134;17.058;2022-12-29T09:03:30;9.30;1.00
2611;DHT22;5612;51.134;17.058;2022-12-29T09:06:20;9.40;1.00
2611;DHT22;5612;51.134;17.058;2022-12-29T09:08:49;9.40;4.00
2611;DHT22;5612;51.134;17.058;2022-12-29T09:11:21;9.50;9.20
2611;DHT22;5612;51.134;17.058;2022-12-29T09:13:51;9.60;3.60
2611;DHT22;5612;51.134;17.058;2022-12-29T09:16:21;9.70;1.00
2611;DHT22;5612;51.134;17.058;2022-12-29T09:18:50;9.60;2.30
2611;DHT22;5612;51.134;17.058;2022-12-29T09:21:19;9.60;4.20
2611;DHT22;5612;51.134;17.058;2022-12-29T09:23:48;9.50;8.40
2611;DHT22;5612;51.134;17.058;2022-12-29T09:26:19;9.60;6.80
2611;DHT22;5612;51.134;17.058;2022-12-29T09:28:50;9.60;9.30
2611;DHT22;5612;51.134;17.058;2022-12-29T09:31:19;9.50;12.10
2611;DHT22;5612;51.134;17.058;2022-12-29T09:33:48;9.70;13.00
2611;DHT22;5612;51.134;17.058;2022-12-29T09:36:16;9.90;11.30
2611;DHT22;5612;51.134;17.058;2022-12-29T09:38:45;10.20;1.00
2611;DHT22;5612;51.134;17.058;2022-12-29T09:41:20;10.30;1.00
2611;DHT22;5612;51.134;17.058;2022-12-29T09:44:04;10.40;1.00
2611;DHT22;5612;51.134;17.058;2022-12-29T09:46:39;10.40;1.00
2611;DHT22;5612;51.134;17.058;2022-12-29T09:49:22;10.60;1.00
2611;DHT22;5612;51.134;17.058;2022-12-29T09:52:02;10.50;1.00
2611;DHT22;5612;51.134;17.058;2022-12-29T09:54:40;10.50;1.00
2611;DHT22;5612;51.134;17.058;2022-12-29T09:57:21;10.60;1.00
2611;DHT22;5612;51.134;17.058;2022-12-29T09:59:55;10.60;1.00
2611;DHT22;5612;51.134;17.058;2022-12-29T10:02:33;10.70;1.00
2611;DHT22;5612;51.134;17.058;2022-12-29T10:05:27;10.70;1.00
2611;DHT22;5612;51.134;17.058;2022-12-29T10:08:12;10.80;1.00
2611;DHT22;5612;51.134;17.058;2022-12-29T10:10:52;10.80;1.00
2611;DHT22;5612;51.134;17.058;2022-12-29T10:13:34;10.80;1.00
2611;DHT22;5612;51.134;17.058;2022-12-29T10:16:11;10.80;1.00
2611;DHT22;5612;51.134;17.058;2022-12-29T10:18:57;10.80;1.00
2611;DHT22;5612;51.134;17.058;2022-12-29T10:21:36;10.80;1.00
2611;DHT22;5612;51.134;17.058;2022-12-29T10:24:11;10.90;1.00
2611;DHT22;5612;51.134;17.058;2022-12-29T10:26:43;11.10;1.00
2611;DHT22;5612;51.134;17.058;2022-12-29T10:29:19;11.30;1.00
2611;DHT22;5612;51.134;17.058;2022-12-29T10:31:53;11.50;1.00
2611;DHT22;5612;51.134;17.058;2022-12-29T10:34:25;11.60;1.00
2611;DHT22;5612;51.134;17.058;2022-12-29T10:37:00;11.60;1.00
2611;DHT22;5612;51.134;17.058;2022-12-29T10:39:33;11.60;1.00
2611;DHT22;5612;51.134;17.058;2022-12-29T10:42:11;11.70;1.00
2611;DHT22;5612;51.134;17.058;2022-12-29T10:44:43;11.80;1.00
2611;DHT22;5612;51.134;17.058;2022-12-29T10:47:16;11.80;1.00
2611;DHT22;5612;51.134;17.058;2022-12-29T10:49:48;11.80;1.00
2611;DHT22;5612;51.134;17.058;2022-12-29T10:52:18;11.70;1.00
2611;DHT22;5612;51.134;17.058;2022-12-29T10:54:51;11.80;1.00
2611;DHT22;5612;51.134;17.058;2022-12-29T10:57:26;11.80;1.00
2611;DHT22;5612;51.134;17.058;2022-12-29T10:59:57;11.80;1.00
2611;DHT22;5612;51.134;17.058;2022-12-29T11:02:48;11.80;1.00
2611;DHT22;5612;51.134;17.058;2022-12-29T11:05:27;12.00;1.00
2611;DHT22;5612;51.134;17.058;2022-12-29T11:08:02;12.20;1.00
2611;DHT22;5612;51.134;17.058;2022-12-29T11:10:36;12.50;1.00
2611;DHT22;5612;51.134;17.058;2022-12-29T11:13:13;12.60;1.00
2611;DHT22;5612;51.134;17.058;2022-12-29T11:15:45;12.70;1.00
2611;DHT22;5612;51.134;17.058;2022-12-29T11:18:20;12.80;1.00
2611;DHT22;5612;51.134;17.058;2022-12-29T11:20:51;12.70;1.00
2611;DHT22;5612;51.134;17.058;2022-12-29T11:23:32;13.00;1.00
2611;DHT22;5612;51.134;17.058;2022-12-29T11:26:22;13.20;1.00
2611;DHT22;5612;51.134;17.058;2022-12-29T11:29:20;13.10;1.00
2611;DHT22;5612;51.134;17.058;2022-12-29T11:31:52;13.00;1.00
2611;DHT22;5612;51.134;17.058;2022-12-29T11:34:24;13.20;1.00
2611;DHT22;5612;51.134;17.058;2022-12-29T11:37:09;13.20;1.00
2611;DHT22;5612;51.134;17.058;2022-12-29T11:39:43;12.70;1.00
2611;DHT22;5612;51.134;17.058;2022-12-29T11:42:16;12.60;1.00
2611;DHT22;5612;51.134;17.058;2022-12-29T11:44:47;12.40;1.00
2611;DHT22;5612;51.134;17.058;2022-12-29T11:47:27;12.40;1.00
2611;DHT22;5612;51.134;17.058;2022-12-29T11:49:59;12.40;1.00
2611;DHT22;5612;51.134;17.058;2022-12-29T11:52:31;12.30;1.00
2611;DHT22;5612;51.134;17.058;2022-12-29T11:55:04;12.40;1.00
2611;DHT22;5612;51.134;17.058;2022-12-29T11:57:35;12.50;1.00
2611;DHT22;5612;51.134;17.058;2022-12-29T12:00:15;12.60;1.00
2611;DHT22;5612;51.134;17.058;2022-12-29T12:02:53;12.60;1.00
2611;DHT22;5612;51.134;17.058;2022-12-29T12:05:32;12.60;1.00
2611;DHT22;5612;51.134;17.058;2022-12-29T12:08:09;12.60;1.00
2611;DHT22;5612;51.134;17.058;2022-12-29T12:10:50;12.60;1.00
2611;DHT22;5612;51.134;17.058;2022-12-29T12:13:23;12.50;1.00
2611;DHT22;5612;51.134;17.058;2022-12-29T12:15:59;12.40;1.00
2611;DHT22;5612;51.134;17.058;2022-12-29T12:18:41;12.60;1.00
2611;DHT22;5612;51.134;17.058;2022-12-29T12:21:20;12.60;1.00
2611;DHT22;5612;51.134;17.058;2022-12-29T12:24:04;12.50;1.00
2611;DHT22;5612;51.134;17.058;2022-12-29T12:26:39;12.30;1.00
2611;DHT22;5612;51.134;17.058;2022-12-29T12:29:14;12.30;1.00
2611;DHT22;5612;51.134;17.058;2022-12-29T12:31:49;12.40;1.00
2611;DHT22;5612;51.134;17.058;2022-12-29T12:34:24;12.40;1.00
2611;DHT22;5612;51.134;17.058;2022-12-29T12:37:09;12.50;1.00
2611;DHT22;5612;51.134;17.058;2022-12-29T12:39:49;12.50;1.00
2611;DHT22;5612;51.134;17.058;2022-12-29T12:42:34;12.50;1.00
2611;DHT22;5612;51.134;17.058;2022-12-29T12:45:27;12.50;1.00
2611;DHT22;5612;51.134;17.058;2022-12-29T12:48:11;12.50;1.00
2611;DHT22;5612;51.134;17.058;2022-12-29T12:50:50;12.40;1.00
2611;DHT22;5612;51.134;17.058;2022-12-29T12:53:40;12.50;1.00
2611;DHT22;5612;51.134;17.058;2022-12-29T12:59:03;12.90;1.00
2611;DHT22;5612;51.134;17.058;2022-12-29T13:01:42;13.10;1.00
2611;DHT22;5612;51.134;17.058;2022-12-29T13:04:28;13.40;1.00
2611;DHT22;5612;51.134;17.058;2022-12-29T13:07:13;13.50;1.00
2611;DHT22;5612;51.134;17.058;2022-12-29T13:09:58;13.40;1.00
2611;DHT22;5612;51.134;17.058;2022-12-29T13:12:37;13.40;1.00
2611;DHT22;5612;51.134;17.058;2022-12-29T13:15:17;13.20;1.00
2611;DHT22;5612;51.134;17.058;2022-12-29T13:17:55;13.00;1.00
2611;DHT22;5612;51.134;17.058;2022-12-29T13:20:30;12.80;1.00
2611;DHT22;5612;51.134;17.058;2022-12-29T13:23:08;12.80;1.00
2611;DHT22;5612;51.134;17.058;2022-12-29T13:25:45;12.70;1.00
2611;DHT22;5612;51.134;17.058;2022-12-29T13:28:22;12.50;1.00
2611;DHT22;5612;51.134;17.058;2022-12-29T13:30:57;12.60;1.00
2611;DHT22;5612;51.134;17.058;2022-12-29T13:33:37;12.60;1.00
2611;DHT22;5612;51.134;17.058;2022-12-29T13:36:13;12.70;1.00
2611;DHT22;5612;51.134;17.058;2022-12-29T13:38:50;12.80;1.00
2611;DHT22;5612;51.134;17.058;2022-12-29T13:41:27;12.80;1.00
2611;DHT22;5612;51.134;17.058;2022-12-29T13:44:01;13.20;1.00
2611;DHT22;5612;51.134;17.058;2022-12-29T13:46:35;13.70;1.00
2611;DHT22;5612;51.134;17.058;2022-12-29T13:49:11;13.90;1.00
2611;DHT22;5612;51.134;17.058;2022-12-29T13:51:47;14.00;1.00
2611;DHT22;5612;51.134;17.058;2022-12-29T13:54:27;14.00;1.00
2611;DHT22;5612;51.134;17.058;2022-12-29T13:57:06;13.90;1.00
2611;DHT22;5612;51.134;17.058;2022-12-29T13:59:48;13.80;1.00
2611;DHT22;5612;51.134;17.058;2022-12-29T14:02:26;13.40;1.00
2611;DHT22;5612;51.134;17.058;2022-12-29T14:05:00;12.90;1.00
2611;DHT22;5612;51.134;17.058;2022-12-29T14:07:36;12.70;1.00
2611;DHT22;5612;51.134;17.058;2022-12-29T14:10:27;12.50;1.00
2611;DHT22;5612;51.134;17.058;2022-12-29T14:13:03;12.40;1.00
2611;DHT22;5612;51.134;17.058;2022-12-29T14:15:32;12.40;1.00
2611;DHT22;5612;51.134;17.058;2022-12-29T14:18:10;12.30;1.00
2611;DHT22;5612;51.134;17.058;2022-12-29T14:20:50;12.10;1.00
2611;DHT22;5612;51.134;17.058;2022-12-29T14:23:29;12.10;1.00
2611;DHT22;5612;51.134;17.058;2022-12-29T14:26:17;12.10;1.00
2611;DHT22;5612;51.134;17.058;2022-12-29T14:28:50;11.90;1.00
2611;DHT22;5612;51.134;17.058;2022-12-29T14:31:34;11.50;1.00
2611;DHT22;5612;51.134;17.058;2022-12-29T14:34:27;11.10;14.80
2611;DHT22;5612;51.134;17.058;2022-12-29T14:36:58;10.80;34.90
2611;DHT22;5612;51.134;17.058;2022-12-29T14:39:32;10.70;35.90
2611;DHT22;5612;51.134;17.058;2022-12-29T14:42:05;10.60;38.10
2611;DHT22;5612;51.134;17.058;2022-12-29T14:44:44;10.50;38.00
2611;DHT22;5612;51.134;17.058;2022-12-29T14:47:19;10.40;43.30
2611;DHT22;5612;51.134;17.058;2022-12-29T14:49:49;10.20;56.40
2611;DHT22;5612;51.134;17.058;2022-12-29T14:52:20;10.20;59.10
2611;DHT22;5612;51.134;17.058;2022-12-29T14:54:52;10.10;49.90
2611;DHT22;5612;51.134;17.058;2022-12-29T14:57:35;10.10;50.50
2611;DHT22;5612;51.134;17.058;2022-12-29T15:00:14;10.00;48.20
2611;DHT22;5612;51.134;17.058;2022-12-29T15:02:49;9.80;56.70
2611;DHT22;5612;51.134;17.058;2022-12-29T15:05:30;9.80;68.10
2611;DHT22;5612;51.134;17.058;2022-12-29T15:08:00;9.70;67.70
2611;DHT22;5612;51.134;17.058;2022-12-29T15:10:41;9.70;72.60
2611;DHT22;5612;51.134;17.058;2022-12-29T15:13:17;9.70;71.50
2611;DHT22;5612;51.134;17.058;2022-12-29T15:15:49;9.70;83.40
2611;DHT22;5612;51.134;17.058;2022-12-29T15:18:27;9.60;83.20
2611;DHT22;5612;51.134;17.058;2022-12-29T15:20:58;9.60;68.60
2611;DHT22;5612;51.134;17.058;2022-12-29T15:23:30;9.60;63.20
2611;DHT22;5612;51.134;17.058;2022-12-29T15:26:02;9.60;63.00
2611;DHT22;5612;51.134;17.058;2022-12-29T15:28:39;9.50;67.40
2611;DHT22;5612;51.134;17.058;2022-12-29T15:31:12;9.50;80.50
2611;DHT22;5612;51.134;17.058;2022-12-29T15:33:43;9.50;75.70
2611;DHT22;5612;51.134;17.058;2022-12-29T15:36:13;9.40;82.40
2611;DHT22;5612;51.134;17.058;2022-12-29T15:38:42;9.30;91.90
2611;DHT22;5612;51.134;17.058;2022-12-29T15:41:22;9.20;94.00
2611;DHT22;5612;51.134;17.058;2022-12-29T15:44:04;9.10;99.90
2611;DHT22;5612;51.134;17.058;2022-12-29T15:46:38;9.00;99.90
2611;DHT22;5612;51.134;17.058;2022-12-29T15:49:08;8.90;99.90
2611;DHT22;5612;51.134;17.058;2022-12-29T15:51:38;8.80;99.90
2611;DHT22;5612;51.134;17.058;2022-12-29T15:54:16;8.80;99.90
2611;DHT22;5612;51.134;17.058;2022-12-29T15:56:46;8.70;99.90
2611;DHT22;5612;51.134;17.058;2022-12-29T15:59:25;8.70;99.90
2611;DHT22;5612;51.134;17.058;2022-12-29T16:01:55;8.60;99.90
2611;DHT22;5612;51.134;17.058;2022-12-29T16:04:27;8.50;99.90
2611;DHT22;5612;51.134;17.058;2022-12-29T16:06:58;8.60;99.90
2611;DHT22;5612;51.134;17.058;2022-12-29T16:09:31;8.50;99.90
2611;DHT22;5612;51.134;17.058;2022-12-29T16:12:02;8.50;99.90
2611;DHT22;5612;51.134;17.058;2022-12-29T16:14:39;8.40;99.90
2611;DHT22;5612;51.134;17.058;2022-12-29T16:17:13;8.40;99.90
2611;DHT22;5612;51.134;17.058;2022-12-29T16:19:50;8.40;99.90
2611;DHT22;5612;51.134;17.058;2022-12-29T16:22:25;8.40;99.90
2611;DHT22;5612;51.134;17.058;2022-12-29T16:24:56;8.40;99.90
2611;DHT22;5612;51.134;17.058;2022-12-29T16:27:37;8.40;99.90
2611;DHT22;5612;51.134;17.058;2022-12-29T16:30:19;8.40;99.90
2611;DHT22;5612;51.134;17.058;2022-12-29T16:33:01;8.40;99.90
2611;DHT22;5612;51.134;17.058;2022-12-29T16:35:44;8.40;99.90
2611;DHT22;5612;51.134;17.058;2022-12-29T16:38:14;8.50;99.90
2611;DHT22;5612;51.134;17.058;2022-12-29T16:40:51;8.50;99.90
2611;DHT22;5612;51.134;17.058;2022-12-29T16:43:22;8.50;99.90
2611;DHT22;5612;51.134;17.058;2022-12-29T16:46:17;8.50;99.90
2611;DHT22;5612;51.134;17.058;2022-12-29T16:48:49;8.50;99.90